sensor_id;sensor_type;location;lat;lon;timestamp;P1;durP1;ratioP1;P2;durP2;ratioP2
14768;SDS011;7476;49.404;11.152;2022-10-15T00:00:38;4.60;;;4.20;;
14768;SDS011;7476;49.404;11.152;2022-10-15T00:03:05;5.33;;;3.70;;
14768;SDS011;7476;49.404;11.152;2022-10-15T00:05:32;3.93;;;3.60;;
14768;SDS011;7476;49.404;11.152;2022-10-15T00:08:01;4.97;;;4.20;;
14768;SDS011;7476;49.404;11.152;2022-10-15T00:10:28;6.67;;;3.97;;
14768;SDS011;7476;49.404;11.152;2022-10-15T00:12:56;4.10;;;3.70;;
14768;SDS011;7476;49.404;11.152;2022-10-15T00:15:23;5.57;;;4.10;;
14768;SDS011;7476;49.404;11.152;2022-10-15T00:17:50;4.57;;;4.07;;
14768;SDS011;7476;49.404;11.152;2022-10-15T00:20:17;4.80;;;3.93;;
14768;SDS011;7476;49.404;11.152;2022-10-15T00:22:43;4.77;;;3.80;;
14768;SDS011;7476;49.404;11.152;2022-10-15T00:25:10;4.97;;;3.50;;
14768;SDS011;7476;49.404;11.152;2022-10-15T00:27:37;5.57;;;4.07;;
14768;SDS011;7476;49.404;11.152;2022-10-15T00:30:05;4.13;;;3.57;;
14768;SDS011;7476;49.404;11.152;2022-10-15T00:32:33;4.63;;;3.67;;
14768;SDS011;7476;49.404;11.152;2022-10-15T00:34:59;4.47;;;3.70;;
14768;SDS011;7476;49.404;11.152;2022-10-15T00:37:26;5.60;;;3.50;;
14768;SDS011;7476;49.404;11.152;2022-10-15T00:39:53;6.63;;;3.97;;
14768;SDS011;7476;49.404;11.152;2022-10-15T00:42:20;5.10;;;3.17;;
14768;SDS011;7476;49.404;11.152;2022-10-15T00:44:48;3.93;;;3.50;;
14768;SDS011;7476;49.404;11.152;2022-10-15T00:47:19;4.20;;;3.30;;
14768;SDS011;7476;49.404;11.152;2022-10-15T00:49:54;4.30;;;3.10;;
14768;SDS011;7476;49.404;11.152;2022-10-15T00:52:25;4.50;;;3.20;;
14768;SDS011;7476;49.404;11.152;2022-10-15T00:54:57;4.87;;;3.40;;
14768;SDS011;7476;49.404;11.152;2022-10-15T00:57:27;3.47;;;2.93;;
14768;SDS011;7476;49.404;11.152;2022-10-15T00:59:56;5.37;;;3.60;;
14768;SDS011;7476;49.404;11.152;2022-10-15T01:02:27;4.63;;;3.00;;
14768;SDS011;7476;49.404;11.152;2022-10-15T01:04:54;5.17;;;2.90;;
14768;SDS011;7476;49.404;11.152;2022-10-15T01:07:21;3.60;;;3.07;;
14768;SDS011;7476;49.404;11.152;2022-10-15T01:09:48;4.07;;;3.20;;
14768;SDS011;7476;49.404;11.152;2022-10-15T01:12:16;3.63;;;2.90;;
14768;SDS011;7476;49.404;11.152;2022-10-15T01:14:53;3.43;;;3.13;;
14768;SDS011;7476;49.404;11.152;2022-10-15T01:17:30;3.33;;;2.87;;
14768;SDS011;7476;49.404;11.152;2022-10-15T01:23:18;3.60;;;2.53;;
14768;SDS011;7476;49.404;11.152;2022-10-15T01:26:27;6.33;;;2.80;;
14768;SDS011;7476;49.404;11.152;2022-10-15T01:29:11;3.57;;;2.67;;
14768;SDS011;7476;49.404;11.152;2022-10-15T01:31:52;4.43;;;2.60;;
14768;SDS011;7476;49.404;11.152;2022-10-15T01:34:27;3.67;;;2.23;;
14768;SDS011;7476;49.404;11.152;2022-10-15T01:37:03;4.10;;;2.80;;
14768;SDS011;7476;49.404;11.152;2022-10-15T01:39:36;3.13;;;2.40;;
14768;SDS011;7476;49.404;11.152;2022-10-15T01:42:09;2.70;;;2.40;;
14768;SDS011;7476;49.404;11.152;2022-10-15T01:44:41;2.67;;;2.30;;
14768;SDS011;7476;49.404;11.152;2022-10-15T01:47:14;2.60;;;2.37;;
14768;SDS011;7476;49.404;11.152;2022-10-15T01:49:45;4.47;;;2.17;;
14768;SDS011;7476;49.404;11.152;2022-10-15T01:52:15;2.60;;;2.27;;
14768;SDS011;7476;49.404;11.152;2022-10-15T01:54:46;2.20;;;2.00;;
14768;SDS011;7476;49.404;11.152;2022-10-15T01:57:15;2.63;;;2.07;;
14768;SDS011;7476;49.404;11.152;2022-10-15T01:59:44;3.27;;;2.00;;
14768;SDS011;7476;49.404;11.152;2022-10-15T02:02:11;3.33;;;2.07;;
14768;SDS011;7476;49.404;11.152;2022-10-15T02:04:40;3.07;;;1.97;;
14768;SDS011;7476;49.404;11.152;2022-10-15T02:07:07;3.87;;;2.00;;
14768;SDS011;7476;49.404;11.152;2022-10-15T02:09:40;3.53;;;2.00;;
14768;SDS011;7476;49.404;11.152;2022-10-15T02:12:19;2.33;;;1.80;;
14768;SDS011;7476;49.404;11.152;2022-10-15T02:14:57;2.07;;;1.97;;
14768;SDS011;7476;49.404;11.152;2022-10-15T02:17:33;3.43;;;1.70;;
14768;SDS011;7476;49.404;11.152;2022-10-15T02:20:06;1.70;;;1.60;;
14768;SDS011;7476;49.404;11.152;2022-10-15T02:22:40;1.90;;;1.63;;
14768;SDS011;7476;49.404;11.152;2022-10-15T02:25:14;1.73;;;1.63;;
14768;SDS011;7476;49.404;11.152;2022-10-15T02:27:43;2.73;;;1.73;;
14768;SDS011;7476;49.404;11.152;2022-10-15T02:30:13;3.20;;;1.70;;
14768;SDS011;7476;49.404;11.152;2022-10-15T02:32:41;3.13;;;1.83;;
14768;SDS011;7476;49.404;11.152;2022-10-15T02:35:13;1.57;;;1.47;;
14768;SDS011;7476;49.404;11.152;2022-10-15T02:37:41;1.90;;;1.50;;
14768;SDS011;7476;49.404;11.152;2022-10-15T02:40:11;1.90;;;1.53;;
14768;SDS011;7476;49.404;11.152;2022-10-15T02:42:37;2.03;;;1.63;;
14768;SDS011;7476;49.404;11.152;2022-10-15T02:45:05;1.43;;;1.33;;
14768;SDS011;7476;49.404;11.152;2022-10-15T02:47:33;2.70;;;1.50;;
14768;SDS011;7476;49.404;11.152;2022-10-15T02:49:59;2.60;;;1.60;;
14768;SDS011;7476;49.404;11.152;2022-10-15T02:52:27;2.17;;;1.50;;
14768;SDS011;7476;49.404;11.152;2022-10-15T02:54:54;2.50;;;1.70;;
14768;SDS011;7476;49.404;11.152;2022-10-15T02:57:21;2.17;;;1.30;;
14768;SDS011;7476;49.404;11.152;2022-10-15T02:59:47;2.10;;;1.23;;
14768;SDS011;7476;49.404;11.152;2022-10-15T03:02:14;2.63;;;1.40;;
14768;SDS011;7476;49.404;11.152;2022-10-15T03:04:41;1.30;;;1.20;;
14768;SDS011;7476;49.404;11.152;2022-10-15T03:07:07;1.43;;;1.30;;
14768;SDS011;7476;49.404;11.152;2022-10-15T03:09:35;1.50;;;1.30;;
14768;SDS011;7476;49.404;11.152;2022-10-15T03:12:02;3.53;;;1.50;;
14768;SDS011;7476;49.404;11.152;2022-10-15T03:14:29;1.40;;;1.30;;
14768;SDS011;7476;49.404;11.152;2022-10-15T03:16:56;1.30;;;1.20;;
14768;SDS011;7476;49.404;11.152;2022-10-15T03:19:23;4.30;;;1.50;;
14768;SDS011;7476;49.404;11.152;2022-10-15T03:21:49;1.50;;;1.40;;
14768;SDS011;7476;49.404;11.152;2022-10-15T03:24:16;1.30;;;1.20;;
14768;SDS011;7476;49.404;11.152;2022-10-15T03:26:44;1.60;;;1.30;;
14768;SDS011;7476;49.404;11.152;2022-10-15T03:29:11;2.73;;;1.27;;
14768;SDS011;7476;49.404;11.152;2022-10-15T03:31:38;1.40;;;1.30;;
14768;SDS011;7476;49.404;11.152;2022-10-15T03:34:04;3.00;;;1.10;;
14768;SDS011;7476;49.404;11.152;2022-10-15T03:36:31;3.07;;;1.43;;
14768;SDS011;7476;49.404;11.152;2022-10-15T03:38:57;1.70;;;1.20;;
14768;SDS011;7476;49.404;11.152;2022-10-15T03:41:24;1.27;;;1.17;;
14768;SDS011;7476;49.404;11.152;2022-10-15T03:43:52;1.70;;;1.20;;
14768;SDS011;7476;49.404;11.152;2022-10-15T03:46:19;3.27;;;1.13;;
14768;SDS011;7476;49.404;11.152;2022-10-15T03:48:47;2.47;;;1.47;;
14768;SDS011;7476;49.404;11.152;2022-10-15T03:51:14;1.20;;;1.03;;
14768;SDS011;7476;49.404;11.152;2022-10-15T03:53:40;1.43;;;1.20;;
14768;SDS011;7476;49.404;11.152;2022-10-15T03:56:07;1.93;;;1.30;;
14768;SDS011;7476;49.404;11.152;2022-10-15T03:58:34;3.70;;;1.50;;
14768;SDS011;7476;49.404;11.152;2022-10-15T04:01:06;1.63;;;1.20;;
14768;SDS011;7476;49.404;11.152;2022-10-15T04:03:33;1.13;;;1.03;;
14768;SDS011;7476;49.404;11.152;2022-10-15T04:06:00;1.27;;;1.17;;
14768;SDS011;7476;49.404;11.152;2022-10-15T04:08:26;1.67;;;1.17;;
14768;SDS011;7476;49.404;11.152;2022-10-15T04:10:53;1.63;;;1.10;;
14768;SDS011;7476;49.404;11.152;2022-10-15T04:13:20;2.07;;;1.20;;
14768;SDS011;7476;49.404;11.152;2022-10-15T04:15:46;3.03;;;1.40;;
14768;SDS011;7476;49.404;11.152;2022-10-15T04:18:14;1.43;;;1.20;;
14768;SDS011;7476;49.404;11.152;2022-10-15T04:20:41;1.30;;;1.20;;
14768;SDS011;7476;49.404;11.152;2022-10-15T04:23:08;3.60;;;1.20;;
14768;SDS011;7476;49.404;11.152;2022-10-15T04:25:35;1.40;;;1.10;;
14768;SDS011;7476;49.404;11.152;2022-10-15T04:28:01;1.67;;;1.40;;
14768;SDS011;7476;49.404;11.152;2022-10-15T04:30:28;1.20;;;1.10;;
14768;SDS011;7476;49.404;11.152;2022-10-15T04:32:55;1.87;;;1.10;;
14768;SDS011;7476;49.404;11.152;2022-10-15T04:35:23;2.83;;;1.20;;
14768;SDS011;7476;49.404;11.152;2022-10-15T04:37:50;3.60;;;1.20;;
14768;SDS011;7476;49.404;11.152;2022-10-15T04:40:16;1.23;;;1.10;;
14768;SDS011;7476;49.404;11.152;2022-10-15T04:42:43;1.37;;;1.27;;
14768;SDS011;7476;49.404;11.152;2022-10-15T04:45:10;1.73;;;1.10;;
14768;SDS011;7476;49.404;11.152;2022-10-15T04:47:37;2.60;;;1.43;;
14768;SDS011;7476;49.404;11.152;2022-10-15T04:50:04;2.40;;;1.17;;
14768;SDS011;7476;49.404;11.152;2022-10-15T04:52:33;1.33;;;1.23;;
14768;SDS011;7476;49.404;11.152;2022-10-15T04:55:00;1.80;;;1.40;;
14768;SDS011;7476;49.404;11.152;2022-10-15T04:57:28;1.10;;;1.00;;
14768;SDS011;7476;49.404;11.152;2022-10-15T04:59:55;1.20;;;1.10;;
14768;SDS011;7476;49.404;11.152;2022-10-15T05:02:22;1.40;;;1.10;;
14768;SDS011;7476;49.404;11.152;2022-10-15T05:04:48;1.30;;;1.20;;
14768;SDS011;7476;49.404;11.152;2022-10-15T05:07:16;2.30;;;1.53;;
14768;SDS011;7476;49.404;11.152;2022-10-15T05:09:44;1.77;;;1.33;;
14768;SDS011;7476;49.404;11.152;2022-10-15T05:12:10;1.40;;;1.10;;
14768;SDS011;7476;49.404;11.152;2022-10-15T05:14:37;2.23;;;1.20;;
14768;SDS011;7476;49.404;11.152;2022-10-15T05:17:03;3.30;;;1.10;;
14768;SDS011;7476;49.404;11.152;2022-10-15T05:19:30;1.33;;;1.10;;
14768;SDS011;7476;49.404;11.152;2022-10-15T05:21:57;1.30;;;1.20;;
14768;SDS011;7476;49.404;11.152;2022-10-15T05:24:23;1.20;;;1.10;;
14768;SDS011;7476;49.404;11.152;2022-10-15T05:26:51;2.30;;;1.10;;
14768;SDS011;7476;49.404;11.152;2022-10-15T05:29:18;3.67;;;1.30;;
14768;SDS011;7476;49.404;11.152;2022-10-15T05:31:45;1.60;;;1.20;;
14768;SDS011;7476;49.404;11.152;2022-10-15T05:34:15;1.77;;;1.30;;
14768;SDS011;7476;49.404;11.152;2022-10-15T05:36:41;1.43;;;1.33;;
14768;SDS011;7476;49.404;11.152;2022-10-15T05:39:08;1.70;;;1.20;;
14768;SDS011;7476;49.404;11.152;2022-10-15T05:41:36;1.27;;;1.00;;
14768;SDS011;7476;49.404;11.152;2022-10-15T05:44:04;2.93;;;1.20;;
14768;SDS011;7476;49.404;11.152;2022-10-15T05:46:31;1.93;;;1.23;;
14768;SDS011;7476;49.404;11.152;2022-10-15T05:48:58;1.20;;;1.10;;
14768;SDS011;7476;49.404;11.152;2022-10-15T05:51:25;3.70;;;1.30;;
14768;SDS011;7476;49.404;11.152;2022-10-15T05:53:53;1.73;;;1.23;;
14768;SDS011;7476;49.404;11.152;2022-10-15T05:56:20;1.13;;;1.03;;
14768;SDS011;7476;49.404;11.152;2022-10-15T05:58:47;2.93;;;1.50;;
14768;SDS011;7476;49.404;11.152;2022-10-15T06:01:15;1.37;;;1.27;;
14768;SDS011;7476;49.404;11.152;2022-10-15T06:03:42;1.83;;;1.20;;
14768;SDS011;7476;49.404;11.152;2022-10-15T06:06:12;1.30;;;1.10;;
14768;SDS011;7476;49.404;11.152;2022-10-15T06:08:40;1.20;;;1.10;;
14768;SDS011;7476;49.404;11.152;2022-10-15T06:11:07;1.50;;;1.20;;
14768;SDS011;7476;49.404;11.152;2022-10-15T06:13:34;1.20;;;1.10;;
14768;SDS011;7476;49.404;11.152;2022-10-15T06:16:02;1.90;;;1.20;;
14768;SDS011;7476;49.404;11.152;2022-10-15T06:18:30;1.63;;;1.37;;
14768;SDS011;7476;49.404;11.152;2022-10-15T06:20:57;1.97;;;1.20;;
14768;SDS011;7476;49.404;11.152;2022-10-15T06:23:23;1.70;;;1.40;;
14768;SDS011;7476;49.404;11.152;2022-10-15T06:25:50;4.70;;;1.50;;
14768;SDS011;7476;49.404;11.152;2022-10-15T06:28:17;1.60;;;1.40;;
14768;SDS011;7476;49.404;11.152;2022-10-15T06:30:44;2.33;;;1.30;;
14768;SDS011;7476;49.404;11.152;2022-10-15T06:33:10;1.87;;;1.30;;
14768;SDS011;7476;49.404;11.152;2022-10-15T06:35:38;1.30;;;1.20;;
14768;SDS011;7476;49.404;11.152;2022-10-15T06:38:05;2.17;;;1.40;;
14768;SDS011;7476;49.404;11.152;2022-10-15T06:40:32;1.60;;;1.40;;
14768;SDS011;7476;49.404;11.152;2022-10-15T06:43:02;2.60;;;1.30;;
14768;SDS011;7476;49.404;11.152;2022-10-15T06:45:30;1.73;;;1.33;;
14768;SDS011;7476;49.404;11.152;2022-10-15T06:47:56;1.67;;;1.40;;
14768;SDS011;7476;49.404;11.152;2022-10-15T06:50:23;1.83;;;1.60;;
14768;SDS011;7476;49.404;11.152;2022-10-15T06:52:51;1.97;;;1.77;;
14768;SDS011;7476;49.404;11.152;2022-10-15T06:55:18;3.10;;;1.63;;
14768;SDS011;7476;49.404;11.152;2022-10-15T06:57:44;2.80;;;1.90;;
14768;SDS011;7476;49.404;11.152;2022-10-15T07:00:13;1.77;;;1.37;;
14768;SDS011;7476;49.404;11.152;2022-10-15T07:02:40;1.70;;;1.50;;
14768;SDS011;7476;49.404;11.152;2022-10-15T07:05:07;1.50;;;1.40;;
14768;SDS011;7476;49.404;11.152;2022-10-15T07:07:34;3.00;;;1.47;;
14768;SDS011;7476;49.404;11.152;2022-10-15T07:10:02;2.73;;;1.50;;
14768;SDS011;7476;49.404;11.152;2022-10-15T07:12:29;3.50;;;1.63;;
14768;SDS011;7476;49.404;11.152;2022-10-15T07:14:56;1.67;;;1.50;;
14768;SDS011;7476;49.404;11.152;2022-10-15T07:17:22;2.17;;;1.37;;
14768;SDS011;7476;49.404;11.152;2022-10-15T07:19:49;2.33;;;1.37;;
14768;SDS011;7476;49.404;11.152;2022-10-15T07:22:16;2.30;;;1.37;;
14768;SDS011;7476;49.404;11.152;2022-10-15T07:24:42;2.00;;;1.40;;
14768;SDS011;7476;49.404;11.152;2022-10-15T07:27:10;2.07;;;1.20;;
14768;SDS011;7476;49.404;11.152;2022-10-15T07:29:37;3.73;;;1.53;;
14768;SDS011;7476;49.404;11.152;2022-10-15T07:32:04;3.17;;;1.40;;
14768;SDS011;7476;49.404;11.152;2022-10-15T07:34:31;1.47;;;1.20;;
14768;SDS011;7476;49.404;11.152;2022-10-15T07:36:58;1.60;;;1.30;;
14768;SDS011;7476;49.404;11.152;2022-10-15T07:39:24;1.30;;;1.20;;
14768;SDS011;7476;49.404;11.152;2022-10-15T07:41:51;1.33;;;1.23;;
14768;SDS011;7476;49.404;11.152;2022-10-15T07:44:19;2.77;;;1.67;;
14768;SDS011;7476;49.404;11.152;2022-10-15T07:46:46;3.40;;;1.90;;
14768;SDS011;7476;49.404;11.152;2022-10-15T07:49:13;5.17;;;1.60;;
14768;SDS011;7476;49.404;11.152;2022-10-15T07:51:40;2.30;;;1.60;;
14768;SDS011;7476;49.404;11.152;2022-10-15T07:54:07;2.33;;;1.60;;
14768;SDS011;7476;49.404;11.152;2022-10-15T07:56:34;1.90;;;1.40;;
14768;SDS011;7476;49.404;11.152;2022-10-15T07:59:00;1.63;;;1.30;;
14768;SDS011;7476;49.404;11.152;2022-10-15T08:01:28;2.87;;;1.20;;
14768;SDS011;7476;49.404;11.152;2022-10-15T08:03:55;2.03;;;1.30;;
14768;SDS011;7476;49.404;11.152;2022-10-15T08:06:22;1.30;;;1.20;;
14768;SDS011;7476;49.404;11.152;2022-10-15T08:08:48;2.93;;;1.23;;
14768;SDS011;7476;49.404;11.152;2022-10-15T08:11:15;2.90;;;1.30;;
14768;SDS011;7476;49.404;11.152;2022-10-15T08:13:42;1.23;;;1.13;;
14768;SDS011;7476;49.404;11.152;2022-10-15T08:16:11;1.63;;;1.40;;
14768;SDS011;7476;49.404;11.152;2022-10-15T08:18:41;2.97;;;1.17;;
14768;SDS011;7476;49.404;11.152;2022-10-15T08:21:07;1.63;;;1.23;;
14768;SDS011;7476;49.404;11.152;2022-10-15T08:23:35;1.30;;;1.20;;
14768;SDS011;7476;49.404;11.152;2022-10-15T08:26:02;1.33;;;1.13;;
14768;SDS011;7476;49.404;11.152;2022-10-15T08:28:30;1.63;;;1.53;;
14768;SDS011;7476;49.404;11.152;2022-10-15T08:30:58;1.57;;;1.10;;
14768;SDS011;7476;49.404;11.152;2022-10-15T08:33:26;2.23;;;1.17;;
14768;SDS011;7476;49.404;11.152;2022-10-15T08:35:54;1.73;;;1.20;;
14768;SDS011;7476;49.404;11.152;2022-10-15T08:38:21;1.77;;;1.10;;
14768;SDS011;7476;49.404;11.152;2022-10-15T08:40:49;2.03;;;1.00;;
14768;SDS011;7476;49.404;11.152;2022-10-15T08:43:19;0.90;;;0.90;;
14768;SDS011;7476;49.404;11.152;2022-10-15T08:45:48;1.93;;;1.20;;
14768;SDS011;7476;49.404;11.152;2022-10-15T08:48:21;1.10;;;0.93;;
14768;SDS011;7476;49.404;11.152;2022-10-15T08:50:56;2.03;;;1.10;;
14768;SDS011;7476;49.404;11.152;2022-10-15T08:53:26;2.80;;;1.00;;
14768;SDS011;7476;49.404;11.152;2022-10-15T08:55:55;1.27;;;1.17;;
14768;SDS011;7476;49.404;11.152;2022-10-15T08:58:28;1.30;;;1.10;;
14768;SDS011;7476;49.404;11.152;2022-10-15T09:01:08;1.43;;;1.10;;
14768;SDS011;7476;49.404;11.152;2022-10-15T09:03:42;1.10;;;1.00;;
14768;SDS011;7476;49.404;11.152;2022-10-15T09:06:18;2.80;;;1.60;;
14768;SDS011;7476;49.404;11.152;2022-10-15T09:08:50;2.30;;;1.07;;
14768;SDS011;7476;49.404;11.152;2022-10-15T09:11:22;1.60;;;1.17;;
14768;SDS011;7476;49.404;11.152;2022-10-15T09:13:58;1.73;;;1.17;;
14768;SDS011;7476;49.404;11.152;2022-10-15T09:16:26;1.70;;;1.00;;
14768;SDS011;7476;49.404;11.152;2022-10-15T09:18:55;1.00;;;0.90;;
14768;SDS011;7476;49.404;11.152;2022-10-15T09:21:26;3.30;;;0.80;;
14768;SDS011;7476;49.404;11.152;2022-10-15T09:23:55;1.10;;;1.00;;
14768;SDS011;7476;49.404;11.152;2022-10-15T09:26:28;1.20;;;1.00;;
14768;SDS011;7476;49.404;11.152;2022-10-15T09:29:00;1.67;;;1.00;;
14768;SDS011;7476;49.404;11.152;2022-10-15T09:31:34;1.90;;;1.00;;
14768;SDS011;7476;49.404;11.152;2022-10-15T09:34:06;1.33;;;0.90;;
14768;SDS011;7476;49.404;11.152;2022-10-15T09:36:41;1.17;;;1.07;;
14768;SDS011;7476;49.404;11.152;2022-10-15T09:39:17;1.10;;;1.00;;
14768;SDS011;7476;49.404;11.152;2022-10-15T09:41:57;1.43;;;1.20;;
14768;SDS011;7476;49.404;11.152;2022-10-15T09:44:33;1.80;;;1.20;;
14768;SDS011;7476;49.404;11.152;2022-10-15T09:47:13;1.33;;;1.20;;
14768;SDS011;7476;49.404;11.152;2022-10-15T09:49:40;1.40;;;1.10;;
14768;SDS011;7476;49.404;11.152;2022-10-15T09:52:09;2.77;;;1.60;;
14768;SDS011;7476;49.404;11.152;2022-10-15T09:54:44;1.20;;;1.10;;
14768;SDS011;7476;49.404;11.152;2022-10-15T09:57:17;1.20;;;1.10;;
14768;SDS011;7476;49.404;11.152;2022-10-15T09:59:51;2.20;;;1.20;;
14768;SDS011;7476;49.404;11.152;2022-10-15T10:02:19;1.20;;;1.10;;
14768;SDS011;7476;49.404;11.152;2022-10-15T10:04:47;1.60;;;1.30;;
14768;SDS011;7476;49.404;11.152;2022-10-15T10:07:28;3.03;;;1.90;;
14768;SDS011;7476;49.404;11.152;2022-10-15T10:09:56;1.40;;;1.03;;
14768;SDS011;7476;49.404;11.152;2022-10-15T10:12:26;1.37;;;1.13;;
14768;SDS011;7476;49.404;11.152;2022-10-15T10:14:56;1.67;;;1.20;;
14768;SDS011;7476;49.404;11.152;2022-10-15T10:17:24;1.33;;;1.23;;
14768;SDS011;7476;49.404;11.152;2022-10-15T10:22:44;1.10;;;1.00;;
14768;SDS011;7476;49.404;11.152;2022-10-15T10:25:23;1.83;;;1.17;;
14768;SDS011;7476;49.404;11.152;2022-10-15T10:27:58;1.63;;;1.37;;
14768;SDS011;7476;49.404;11.152;2022-10-15T10:30:33;1.77;;;1.30;;
14768;SDS011;7476;49.404;11.152;2022-10-15T10:33:02;1.83;;;1.20;;
14768;SDS011;7476;49.404;11.152;2022-10-15T10:35:32;1.77;;;1.20;;
14768;SDS011;7476;49.404;11.152;2022-10-15T10:38:17;1.20;;;1.10;;
14768;SDS011;7476;49.404;11.152;2022-10-15T10:40:48;2.93;;;1.40;;
14768;SDS011;7476;49.404;11.152;2022-10-15T10:43:17;2.40;;;1.30;;
14768;SDS011;7476;49.404;11.152;2022-10-15T10:45:52;1.87;;;1.30;;
14768;SDS011;7476;49.404;11.152;2022-10-15T10:48:24;1.40;;;1.30;;
14768;SDS011;7476;49.404;11.152;2022-10-15T10:53:47;1.57;;;1.20;;
14768;SDS011;7476;49.404;11.152;2022-10-15T10:56:17;1.80;;;1.13;;
14768;SDS011;7476;49.404;11.152;2022-10-15T10:58:50;2.43;;;1.07;;
14768;SDS011;7476;49.404;11.152;2022-10-15T11:01:20;2.80;;;1.30;;
14768;SDS011;7476;49.404;11.152;2022-10-15T11:03:47;1.87;;;1.10;;
14768;SDS011;7476;49.404;11.152;2022-10-15T11:06:23;1.33;;;0.93;;
14768;SDS011;7476;49.404;11.152;2022-10-15T11:09:05;1.00;;;0.90;;
14768;SDS011;7476;49.404;11.152;2022-10-15T11:11:42;1.33;;;0.80;;
14768;SDS011;7476;49.404;11.152;2022-10-15T11:14:19;1.20;;;1.10;;
14768;SDS011;7476;49.404;11.152;2022-10-15T11:16:52;1.33;;;1.00;;
14768;SDS011;7476;49.404;11.152;2022-10-15T11:19:26;1.53;;;0.80;;
14768;SDS011;7476;49.404;11.152;2022-10-15T11:22:07;1.10;;;1.00;;
14768;SDS011;7476;49.404;11.152;2022-10-15T11:24:42;1.57;;;0.90;;
14768;SDS011;7476;49.404;11.152;2022-10-15T11:27:18;0.80;;;0.80;;
14768;SDS011;7476;49.404;11.152;2022-10-15T11:29:56;1.87;;;0.83;;
14768;SDS011;7476;49.404;11.152;2022-10-15T11:32:35;1.70;;;1.10;;
14768;SDS011;7476;49.404;11.152;2022-10-15T11:35:15;1.07;;;0.93;;
14768;SDS011;7476;49.404;11.152;2022-10-15T11:37:50;1.67;;;0.90;;
14768;SDS011;7476;49.404;11.152;2022-10-15T11:40:29;1.30;;;0.93;;
14768;SDS011;7476;49.404;11.152;2022-10-15T11:43:02;1.73;;;1.00;;
14768;SDS011;7476;49.404;11.152;2022-10-15T11:45:41;1.33;;;1.20;;
14768;SDS011;7476;49.404;11.152;2022-10-15T11:48:18;1.50;;;1.20;;
14768;SDS011;7476;49.404;11.152;2022-10-15T11:50:54;2.93;;;1.47;;
14768;SDS011;7476;49.404;11.152;2022-10-15T11:53:29;1.87;;;1.20;;
14768;SDS011;7476;49.404;11.152;2022-10-15T11:56:11;1.53;;;1.30;;
14768;SDS011;7476;49.404;11.152;2022-10-15T11:58:42;1.37;;;1.27;;
14768;SDS011;7476;49.404;11.152;2022-10-15T12:01:11;2.67;;;1.27;;
14768;SDS011;7476;49.404;11.152;2022-10-15T12:03:46;4.07;;;1.77;;
14768;SDS011;7476;49.404;11.152;2022-10-15T12:06:17;3.33;;;1.53;;
14768;SDS011;7476;49.404;11.152;2022-10-15T12:08:47;2.57;;;1.90;;
14768;SDS011;7476;49.404;11.152;2022-10-15T12:11:19;2.50;;;1.20;;
14768;SDS011;7476;49.404;11.152;2022-10-15T12:13:54;1.10;;;1.00;;
14768;SDS011;7476;49.404;11.152;2022-10-15T12:16:27;1.53;;;1.03;;
14768;SDS011;7476;49.404;11.152;2022-10-15T12:19:03;4.00;;;1.10;;
14768;SDS011;7476;49.404;11.152;2022-10-15T12:21:39;1.60;;;1.23;;
14768;SDS011;7476;49.404;11.152;2022-10-15T12:27:18;1.70;;;1.30;;
14768;SDS011;7476;49.404;11.152;2022-10-15T12:30:09;2.43;;;1.40;;
14768;SDS011;7476;49.404;11.152;2022-10-15T12:32:39;2.13;;;1.20;;
14768;SDS011;7476;49.404;11.152;2022-10-15T12:35:17;1.97;;;1.00;;
14768;SDS011;7476;49.404;11.152;2022-10-15T12:37:47;1.70;;;1.20;;
14768;SDS011;7476;49.404;11.152;2022-10-15T12:40:27;1.40;;;1.30;;
14768;SDS011;7476;49.404;11.152;2022-10-15T12:42:57;1.87;;;1.23;;
14768;SDS011;7476;49.404;11.152;2022-10-15T12:45:29;1.63;;;1.20;;
14768;SDS011;7476;49.404;11.152;2022-10-15T12:48:17;1.20;;;1.10;;
14768;SDS011;7476;49.404;11.152;2022-10-15T12:50:45;2.13;;;1.50;;
14768;SDS011;7476;49.404;11.152;2022-10-15T12:56:19;2.10;;;1.20;;
14768;SDS011;7476;49.404;11.152;2022-10-15T12:58:49;0.90;;;0.90;;
14768;SDS011;7476;49.404;11.152;2022-10-15T13:01:28;1.57;;;1.07;;
14768;SDS011;7476;49.404;11.152;2022-10-15T13:04:14;3.37;;;1.07;;
14768;SDS011;7476;49.404;11.152;2022-10-15T13:06:41;2.93;;;1.20;;
14768;SDS011;7476;49.404;11.152;2022-10-15T13:12:03;1.20;;;1.00;;
14768;SDS011;7476;49.404;11.152;2022-10-15T13:14:32;1.67;;;1.10;;
14768;SDS011;7476;49.404;11.152;2022-10-15T13:17:03;1.20;;;1.10;;
14768;SDS011;7476;49.404;11.152;2022-10-15T13:19:33;1.87;;;1.00;;
14768;SDS011;7476;49.404;11.152;2022-10-15T13:22:03;1.90;;;0.90;;
14768;SDS011;7476;49.404;11.152;2022-10-15T13:24:39;0.60;;;0.60;;
14768;SDS011;7476;49.404;11.152;2022-10-15T13:27:13;1.63;;;0.80;;
14768;SDS011;7476;49.404;11.152;2022-10-15T13:29:53;0.80;;;0.80;;
14768;SDS011;7476;49.404;11.152;2022-10-15T13:32:21;0.60;;;0.60;;
14768;SDS011;7476;49.404;11.152;2022-10-15T13:34:49;0.60;;;0.60;;
14768;SDS011;7476;49.404;11.152;2022-10-15T13:37:17;2.03;;;0.80;;
14768;SDS011;7476;49.404;11.152;2022-10-15T13:39:48;1.43;;;0.70;;
14768;SDS011;7476;49.404;11.152;2022-10-15T13:42:17;1.87;;;0.97;;
14768;SDS011;7476;49.404;11.152;2022-10-15T13:44:56;0.60;;;0.60;;
14768;SDS011;7476;49.404;11.152;2022-10-15T13:47:25;1.03;;;0.80;;
14768;SDS011;7476;49.404;11.152;2022-10-15T13:50:09;1.70;;;0.80;;
14768;SDS011;7476;49.404;11.152;2022-10-15T13:52:42;0.80;;;0.80;;
14768;SDS011;7476;49.404;11.152;2022-10-15T13:55:19;0.70;;;0.70;;
14768;SDS011;7476;49.404;11.152;2022-10-15T13:57:47;0.70;;;0.70;;
14768;SDS011;7476;49.404;11.152;2022-10-15T14:00:21;1.23;;;0.70;;
14768;SDS011;7476;49.404;11.152;2022-10-15T14:05:49;0.80;;;0.63;;
14768;SDS011;7476;49.404;11.152;2022-10-15T14:08:21;0.60;;;0.60;;
14768;SDS011;7476;49.404;11.152;2022-10-15T14:10:51;0.77;;;0.77;;
14768;SDS011;7476;49.404;11.152;2022-10-15T14:13:19;3.67;;;1.10;;
14768;SDS011;7476;49.404;11.152;2022-10-15T14:18:40;0.60;;;0.60;;
14768;SDS011;7476;49.404;11.152;2022-10-15T14:21:10;1.03;;;0.60;;
14768;SDS011;7476;49.404;11.152;2022-10-15T14:23:38;2.43;;;0.70;;
14768;SDS011;7476;49.404;11.152;2022-10-15T14:26:07;1.20;;;0.70;;
14768;SDS011;7476;49.404;11.152;2022-10-15T14:28:35;0.67;;;0.67;;
14768;SDS011;7476;49.404;11.152;2022-10-15T14:31:04;1.10;;;1.00;;
14768;SDS011;7476;49.404;11.152;2022-10-15T14:33:43;1.40;;;0.73;;
14768;SDS011;7476;49.404;11.152;2022-10-15T14:36:23;0.70;;;0.70;;
14768;SDS011;7476;49.404;11.152;2022-10-15T14:38:52;1.20;;;1.00;;
14768;SDS011;7476;49.404;11.152;2022-10-15T14:41:21;0.77;;;0.70;;
14768;SDS011;7476;49.404;11.152;2022-10-15T14:44:01;2.63;;;1.00;;
14768;SDS011;7476;49.404;11.152;2022-10-15T14:46:34;0.63;;;0.60;;
14768;SDS011;7476;49.404;11.152;2022-10-15T14:49:12;2.30;;;0.70;;
14768;SDS011;7476;49.404;11.152;2022-10-15T14:51:58;0.70;;;0.70;;
14768;SDS011;7476;49.404;11.152;2022-10-15T14:54:33;2.27;;;0.90;;
14768;SDS011;7476;49.404;11.152;2022-10-15T14:57:03;2.17;;;1.90;;
14768;SDS011;7476;49.404;11.152;2022-10-15T14:59:31;1.43;;;0.90;;
14768;SDS011;7476;49.404;11.152;2022-10-15T15:02:01;2.33;;;0.80;;
14768;SDS011;7476;49.404;11.152;2022-10-15T15:04:41;1.33;;;0.80;;
14768;SDS011;7476;49.404;11.152;2022-10-15T15:07:11;0.80;;;0.80;;
14768;SDS011;7476;49.404;11.152;2022-10-15T15:09:39;1.57;;;0.70;;
14768;SDS011;7476;49.404;11.152;2022-10-15T15:12:09;1.00;;;0.90;;
14768;SDS011;7476;49.404;11.152;2022-10-15T15:14:43;0.93;;;0.70;;
14768;SDS011;7476;49.404;11.152;2022-10-15T15:17:14;2.00;;;0.80;;
14768;SDS011;7476;49.404;11.152;2022-10-15T15:19:44;0.83;;;0.83;;
14768;SDS011;7476;49.404;11.152;2022-10-15T15:22:12;2.00;;;0.80;;
14768;SDS011;7476;49.404;11.152;2022-10-15T15:24:40;1.13;;;0.97;;
14768;SDS011;7476;49.404;11.152;2022-10-15T15:27:08;1.63;;;1.10;;
14768;SDS011;7476;49.404;11.152;2022-10-15T15:29:49;1.40;;;1.00;;